createdAt,value
2019-03-10T00:00:48.788Z,94.56
2019-03-10T00:01:48.740Z,94.60
2019-03-10T00:02:48.690Z,95.41
2019-03-10T00:03:48.649Z,95.65
2019-03-10T00:04:48.595Z,95.51
2019-03-10T00:05:48.555Z,95.32
2019-03-10T00:06:48.505Z,95.98
2019-03-10T00:07:48.452Z,95.70
2019-03-10T00:08:48.583Z,95.70
2019-03-10T00:09:48.398Z,96.08
2019-03-10T00:10:48.307Z,96.08
2019-03-10T00:11:48.262Z,95.98
2019-03-10T00:12:48.215Z,95.89
2019-03-10T00:13:48.167Z,96.26
2019-03-10T00:14:48.120Z,96.36
2019-03-10T00:15:48.070Z,95.89
2019-03-10T00:16:48.030Z,95.98
2019-03-10T00:17:47.973Z,95.89
2019-03-10T00:18:47.925Z,97.69
2019-03-10T00:19:47.879Z,97.41
2019-03-10T00:20:47.833Z,96.55
2019-03-10T00:21:47.893Z,96.17
2019-03-10T00:22:47.733Z,96.55
2019-03-10T00:23:47.685Z,97.88
2019-03-10T00:24:47.641Z,98.08
2019-03-10T00:25:47.600Z,97.50
2019-03-10T00:26:47.543Z,97.98
2019-03-10T00:27:47.495Z,97.69
2019-03-10T00:28:47.446Z,97.31
2019-03-10T00:29:47.399Z,97.41
2019-03-10T00:30:47.351Z,97.69
2019-03-10T00:31:47.317Z,99.02
2019-03-10T00:32:47.256Z,97.69
2019-03-10T00:33:47.209Z,98.08
2019-03-10T00:34:47.169Z,97.98
2019-03-10T00:35:47.115Z,98.46
2019-03-10T00:36:47.072Z,98.36
2019-03-10T00:37:47.017Z,98.74
2019-03-10T00:38:47.066Z,98.65
2019-03-10T00:39:46.921Z,97.98
2019-03-10T00:40:46.873Z,99.41
2019-03-10T00:41:46.830Z,99.31
2019-03-10T00:42:46.779Z,99.69
2019-03-10T00:43:46.729Z,99.99
2019-03-10T00:44:46.682Z,99.31
2019-03-10T00:45:46.635Z,99.22
2019-03-10T00:46:46.587Z,99.22
2019-03-10T00:47:46.544Z,99.69
2019-03-10T00:48:46.492Z,99.98
2019-03-10T00:49:46.443Z,99.99
2019-03-10T00:50:46.395Z,99.41
2019-03-10T00:51:46.350Z,99.99
2019-03-10T00:52:46.306Z,99.99
2019-03-10T00:53:46.251Z,99.99
2019-03-10T00:54:46.202Z,99.99
2019-03-10T00:55:46.157Z,99.99
2019-03-10T00:56:46.111Z,99.99
2019-03-10T00:57:46.059Z,99.99
2019-03-10T00:58:46.024Z,99.99
2019-03-10T00:59:46.046Z,99.99
2019-03-10T01:00:45.922Z,99.99
2019-03-10T01:01:45.874Z,99.99
2019-03-10T01:02:45.828Z,99.99
2019-03-10T01:03:45.776Z,99.99
2019-03-10T01:04:45.729Z,99.99
2019-03-10T01:05:45.678Z,99.99
2019-03-10T01:06:45.634Z,99.99
2019-03-10T01:07:45.587Z,99.99
2019-03-10T01:08:45.538Z,99.99
2019-03-10T01:09:45.491Z,99.99
2019-03-10T01:10:45.443Z,99.99
2019-03-10T01:11:45.392Z,99.99
2019-03-10T01:12:45.347Z,99.99
2019-03-10T01:13:45.296Z,99.99
2019-03-10T01:14:45.250Z,99.99
2019-03-10T01:15:45.203Z,99.99
2019-03-10T01:16:45.180Z,99.99
2019-03-10T01:17:45.124Z,99.99
2019-03-10T01:18:45.107Z,99.99
2019-03-10T01:19:45.012Z,99.99
2019-03-10T01:20:44.963Z,99.99
2019-03-10T01:21:44.914Z,99.99
2019-03-10T01:22:44.873Z,99.99
2019-03-10T01:23:44.822Z,99.99
2019-03-10T01:24:44.772Z,99.99
2019-03-10T01:25:44.726Z,99.99
2019-03-10T01:26:44.678Z,99.99
2019-03-10T01:27:44.633Z,99.99
2019-03-10T01:28:44.613Z,99.99
2019-03-10T01:29:44.543Z,99.99
2019-03-10T01:30:44.492Z,99.99
2019-03-10T01:31:44.437Z,99.99
2019-03-10T01:32:44.389Z,99.99
2019-03-10T01:33:44.341Z,99.99
2019-03-10T01:34:44.298Z,99.99
2019-03-10T01:35:44.249Z,99.99
2019-03-10T01:36:44.200Z,99.99
2019-03-10T01:37:44.151Z,99.99
2019-03-10T01:38:44.103Z,99.99
2019-03-10T01:39:44.058Z,99.99
2019-03-10T01:40:44.008Z,99.99
2019-03-10T01:41:43.959Z,99.99
2019-03-10T01:42:43.915Z,99.99
2019-03-10T01:43:43.864Z,99.99
2019-03-10T01:44:43.873Z,99.99
2019-03-10T01:45:43.784Z,99.99
2019-03-10T01:46:43.722Z,99.99
2019-03-10T01:47:43.697Z,99.99
2019-03-10T01:48:43.626Z,99.99
2019-03-10T01:49:43.577Z,99.99
2019-03-10T01:50:43.533Z,99.99
2019-03-10T01:51:43.482Z,99.99
2019-03-10T01:52:43.434Z,99.99
2019-03-10T01:53:43.394Z,99.99
2019-03-10T01:54:43.341Z,99.99
2019-03-10T01:55:43.290Z,99.99
2019-03-10T01:56:43.247Z,99.99
2019-03-10T01:57:43.195Z,99.99
2019-03-10T01:58:43.147Z,99.99
2019-03-10T01:59:43.111Z,99.99
2019-03-10T02:00:43.052Z,99.99
2019-03-10T02:01:43.010Z,99.99
2019-03-10T02:02:42.960Z,99.99
2019-03-10T02:03:42.910Z,99.99
2019-03-10T02:04:42.936Z,99.99
2019-03-10T02:05:42.813Z,99.99
2019-03-10T02:06:42.927Z,99.99
2019-03-10T02:07:42.747Z,99.99
2019-03-10T02:08:42.673Z,99.99
2019-03-10T02:09:42.658Z,99.99
2019-03-10T02:10:42.615Z,99.99
2019-03-10T02:11:42.527Z,99.99
2019-03-10T02:12:42.490Z,99.99
2019-03-10T02:13:42.433Z,99.99
2019-03-10T02:14:42.387Z,99.99
2019-03-10T02:15:42.341Z,99.99
2019-03-10T02:16:42.289Z,99.99
2019-03-10T02:17:42.243Z,99.99
2019-03-10T02:18:42.198Z,99.99
2019-03-10T02:19:42.149Z,99.99
2019-03-10T02:20:42.099Z,99.99
2019-03-10T02:21:42.058Z,99.99
2019-03-10T02:22:42.001Z,99.99
2019-03-10T02:23:42.087Z,99.99
2019-03-10T02:24:41.906Z,99.99
2019-03-10T02:25:41.861Z,99.99
2019-03-10T02:26:41.816Z,99.99
2019-03-10T02:27:41.771Z,99.99
2019-03-10T02:28:41.715Z,99.99
2019-03-10T02:29:41.670Z,99.99
2019-03-10T02:30:41.653Z,99.99
2019-03-10T02:31:41.578Z,99.99
2019-03-10T02:32:41.525Z,99.99
2019-03-10T02:33:41.479Z,99.99
2019-03-10T02:34:41.432Z,99.99
2019-03-10T02:35:41.381Z,99.99
2019-03-10T02:36:41.334Z,99.99
2019-03-10T02:37:41.290Z,99.99
2019-03-10T02:38:41.254Z,99.99
2019-03-10T02:39:41.193Z,99.99
2019-03-10T02:40:43.375Z,99.99
2019-03-10T02:41:41.097Z,99.99
2019-03-10T02:42:41.065Z,99.99
2019-03-10T02:43:41.008Z,99.99
2019-03-10T02:44:40.956Z,99.99
2019-03-10T02:45:40.904Z,99.99
2019-03-10T02:46:40.864Z,99.99
2019-03-10T02:47:40.809Z,99.99
2019-03-10T02:48:40.762Z,99.99
2019-03-10T02:49:40.714Z,99.99
2019-03-10T02:50:40.666Z,99.99
2019-03-10T02:51:40.619Z,99.99
2019-03-10T02:52:40.580Z,99.99
2019-03-10T02:53:40.527Z,99.99
2019-03-10T02:54:40.478Z,99.99
2019-03-10T02:55:40.431Z,99.99
2019-03-10T02:56:40.389Z,99.99
2019-03-10T02:57:40.332Z,99.99
2019-03-10T02:58:40.282Z,99.99
2019-03-10T02:59:40.247Z,99.99
2019-03-10T03:00:40.189Z,99.99
2019-03-10T03:01:40.154Z,99.99
2019-03-10T03:02:40.107Z,99.99
2019-03-10T03:03:40.043Z,99.99
2019-03-10T03:04:39.996Z,99.99
2019-03-10T03:05:39.949Z,99.99
2019-03-10T03:06:39.905Z,99.99
2019-03-10T03:07:39.866Z,99.99
2019-03-10T03:08:39.811Z,99.99
2019-03-10T03:09:39.759Z,99.99
2019-03-10T03:10:39.708Z,99.99
2019-03-10T03:11:39.664Z,99.99
2019-03-10T03:12:39.616Z,99.99
2019-03-10T03:13:39.565Z,99.99
2019-03-10T03:14:39.594Z,99.99
2019-03-10T03:15:39.470Z,99.99
2019-03-10T03:16:39.441Z,99.99
2019-03-10T03:17:39.382Z,99.99
2019-03-10T03:18:39.329Z,99.99
2019-03-10T03:19:39.281Z,99.99
2019-03-10T03:20:39.231Z,99.99
2019-03-10T03:21:43.484Z,99.99
2019-03-10T03:22:39.137Z,99.99
2019-03-10T03:23:39.093Z,99.99
2019-03-10T03:24:39.043Z,99.99
2019-03-10T03:25:38.995Z,99.99
2019-03-10T03:26:38.946Z,99.99
2019-03-10T03:27:38.898Z,99.99
2019-03-10T03:28:38.861Z,99.99
2019-03-10T03:29:38.801Z,99.99
2019-03-10T03:30:38.774Z,99.99
2019-03-10T03:31:38.711Z,99.99
2019-03-10T03:32:38.660Z,99.99
2019-03-10T03:33:38.609Z,99.99
2019-03-10T03:34:38.582Z,99.99
2019-03-10T03:35:38.588Z,99.99
2019-03-10T03:36:38.469Z,99.99
2019-03-10T03:37:38.422Z,99.99
2019-03-10T03:38:38.391Z,99.99
2019-03-10T03:39:38.327Z,99.99
2019-03-10T03:40:38.276Z,99.99
2019-03-10T03:41:38.231Z,99.99
2019-03-10T03:42:38.178Z,99.99
2019-03-10T03:43:38.139Z,99.99
2019-03-10T03:44:38.109Z,99.99
2019-03-10T03:45:38.035Z,99.99
2019-03-10T03:46:37.990Z,99.99
2019-03-10T03:47:37.944Z,99.99
2019-03-10T03:48:37.899Z,99.99
2019-03-10T03:49:37.844Z,99.99
2019-03-10T03:50:37.803Z,99.99
2019-03-10T03:51:37.754Z,99.99
2019-03-10T03:52:37.703Z,99.99
2019-03-10T03:53:37.657Z,99.99
2019-03-10T03:54:37.612Z,99.99
2019-03-10T03:55:37.561Z,99.99
2019-03-10T03:56:37.508Z,99.99
2019-03-10T03:57:37.464Z,99.99
2019-03-10T03:58:37.420Z,99.99
2019-03-10T03:59:37.365Z,99.99
2019-03-10T04:00:37.321Z,99.99
2019-03-10T04:01:37.269Z,99.99
2019-03-10T04:02:37.233Z,99.99
2019-03-10T04:03:37.175Z,99.99
2019-03-10T04:04:37.127Z,99.99
2019-03-10T04:05:37.077Z,99.99
2019-03-10T04:06:37.032Z,99.99
2019-03-10T04:07:36.985Z,99.99
2019-03-10T04:08:36.937Z,99.99
2019-03-10T04:09:36.917Z,99.99
2019-03-10T04:10:36.840Z,99.99
2019-03-10T04:11:36.789Z,99.99
2019-03-10T04:12:36.743Z,99.99
2019-03-10T04:13:36.696Z,99.99
2019-03-10T04:14:36.646Z,99.99
2019-03-10T04:15:36.598Z,99.99
2019-03-10T04:16:36.571Z,99.99
2019-03-10T04:17:36.501Z,99.99
2019-03-10T04:18:36.453Z,99.99
2019-03-10T04:19:36.419Z,99.99
2019-03-10T04:20:36.363Z,99.99
2019-03-10T04:21:36.311Z,99.99
2019-03-10T04:22:36.262Z,99.99
2019-03-10T04:23:36.238Z,99.99
2019-03-10T04:24:36.170Z,99.99
2019-03-10T04:25:36.117Z,99.99
2019-03-10T04:26:36.069Z,99.99
2019-03-10T04:27:36.021Z,99.99
2019-03-10T04:28:35.975Z,99.99
2019-03-10T04:29:35.926Z,99.99
2019-03-10T04:30:35.880Z,99.99
2019-03-10T04:31:35.833Z,99.99
2019-03-10T04:32:35.789Z,99.99
2019-03-10T04:33:35.732Z,99.99
2019-03-10T04:34:35.704Z,99.99
2019-03-10T04:35:35.636Z,99.99
2019-03-10T04:36:35.591Z,99.99
2019-03-10T04:37:35.540Z,99.99
2019-03-10T04:38:35.493Z,99.99
2019-03-10T04:39:35.443Z,99.99
2019-03-10T04:40:35.396Z,99.99
2019-03-10T04:41:35.355Z,99.99
2019-03-10T04:42:35.298Z,99.99
2019-03-10T04:43:35.257Z,99.99
2019-03-10T04:44:36.283Z,99.99
2019-03-10T04:45:35.156Z,99.99
2019-03-10T04:46:35.109Z,99.99
2019-03-10T04:47:35.060Z,99.99
2019-03-10T04:48:35.016Z,99.99
2019-03-10T04:49:34.964Z,99.99
2019-03-10T04:50:34.918Z,99.99
2019-03-10T04:51:34.868Z,99.99
2019-03-10T04:52:34.820Z,99.99
2019-03-10T04:53:34.773Z,99.99
2019-03-10T04:54:34.728Z,99.99
2019-03-10T04:55:34.675Z,99.99
2019-03-10T04:56:34.630Z,99.99
2019-03-10T04:57:34.579Z,99.99
2019-03-10T04:58:34.530Z,99.99
2019-03-10T04:59:34.483Z,99.99
2019-03-10T05:00:34.434Z,99.99
2019-03-10T05:01:34.393Z,99.99
2019-03-10T05:02:34.341Z,99.99
2019-03-10T05:03:34.290Z,99.99
2019-03-10T05:04:34.244Z,99.99
2019-03-10T05:05:34.195Z,99.99
2019-03-10T05:06:34.143Z,99.99
2019-03-10T05:07:34.099Z,99.99
2019-03-10T05:08:34.058Z,99.99
2019-03-10T05:09:33.999Z,99.99
2019-03-10T05:10:33.970Z,99.99
2019-03-10T05:11:33.909Z,99.99
2019-03-10T05:12:33.856Z,99.99
2019-03-10T05:13:33.805Z,99.99
2019-03-10T05:14:33.765Z,99.99
2019-03-10T05:15:33.712Z,99.99
2019-03-10T05:16:33.663Z,99.99
2019-03-10T05:17:33.620Z,99.99
2019-03-10T05:18:33.568Z,99.99
2019-03-10T05:19:33.521Z,99.99
2019-03-10T05:20:33.524Z,99.99
2019-03-10T05:21:33.421Z,99.99
2019-03-10T05:22:33.378Z,99.99
2019-03-10T05:23:33.342Z,99.99
2019-03-10T05:24:33.279Z,99.99
2019-03-10T05:25:33.230Z,99.99
2019-03-10T05:26:33.183Z,99.99
2019-03-10T05:27:33.134Z,99.99
2019-03-10T05:28:33.085Z,99.99
2019-03-10T05:29:33.041Z,99.99
2019-03-10T05:30:32.993Z,99.99
2019-03-10T05:31:32.942Z,99.99
2019-03-10T05:32:32.900Z,99.99
2019-03-10T05:33:32.846Z,99.99
2019-03-10T05:34:32.800Z,99.99
2019-03-10T05:35:32.748Z,99.99
2019-03-10T05:36:32.699Z,99.99
2019-03-10T05:37:32.655Z,99.99
2019-03-10T05:38:32.607Z,99.99
2019-03-10T05:39:32.555Z,99.99
2019-03-10T05:40:32.507Z,99.99
2019-03-10T05:41:32.458Z,99.99
2019-03-10T05:42:32.412Z,99.99
2019-03-10T05:43:32.364Z,99.99
2019-03-10T05:44:32.313Z,99.99
2019-03-10T05:45:32.265Z,99.99
2019-03-10T05:46:32.219Z,99.99
2019-03-10T05:47:32.174Z,99.99
2019-03-10T05:48:32.124Z,99.99
2019-03-10T05:49:32.072Z,99.99
2019-03-10T05:50:32.028Z,99.99
2019-03-10T05:51:31.978Z,99.99
2019-03-10T05:52:31.934Z,99.99
2019-03-10T05:53:31.883Z,99.99
2019-03-10T05:54:31.834Z,99.99
2019-03-10T05:55:31.784Z,99.99
2019-03-10T05:56:32.041Z,99.99
2019-03-10T05:57:31.688Z,99.99
2019-03-10T05:58:31.640Z,99.99
2019-03-10T05:59:31.591Z,99.99
2019-03-10T06:00:41.815Z,99.99
2019-03-10T06:01:31.496Z,99.99
2019-03-10T06:02:31.446Z,99.99
2019-03-10T06:03:31.398Z,99.99
2019-03-10T06:04:31.352Z,99.99
2019-03-10T06:05:31.302Z,99.99
2019-03-10T06:06:31.254Z,99.99
2019-03-10T06:07:31.204Z,99.99
2019-03-10T06:08:31.159Z,99.99
2019-03-10T06:09:31.107Z,99.99
2019-03-10T06:10:31.062Z,99.99
2019-03-10T06:11:31.014Z,99.99
2019-03-10T06:12:30.965Z,99.99
2019-03-10T06:13:30.915Z,99.99
2019-03-10T06:14:30.868Z,99.99
2019-03-10T06:15:30.818Z,99.99
2019-03-10T06:16:30.771Z,99.99
2019-03-10T06:17:30.722Z,99.99
2019-03-10T06:18:30.674Z,99.99
2019-03-10T06:19:30.623Z,99.99
2019-03-10T06:20:30.576Z,99.99
2019-03-10T06:21:30.531Z,99.99
2019-03-10T06:22:30.547Z,99.99
2019-03-10T06:23:30.430Z,99.99
2019-03-10T06:24:30.382Z,99.99
2019-03-10T06:25:30.342Z,99.99
2019-03-10T06:26:30.284Z,99.99
2019-03-10T06:27:30.239Z,99.99
2019-03-10T06:28:30.191Z,99.99
2019-03-10T06:29:30.141Z,99.99
2019-03-10T06:30:30.093Z,99.99
2019-03-10T06:31:30.048Z,99.99
2019-03-10T06:32:30.007Z,99.99
2019-03-10T06:33:29.952Z,99.99
2019-03-10T06:34:29.897Z,99.99
2019-03-10T06:35:29.850Z,99.99
2019-03-10T06:36:29.801Z,99.99
2019-03-10T06:37:29.751Z,99.99
2019-03-10T06:38:29.706Z,99.99
2019-03-10T06:39:29.655Z,99.99
2019-03-10T06:40:32.493Z,99.99
2019-03-10T06:41:29.564Z,99.99
2019-03-10T06:42:29.513Z,99.99
2019-03-10T06:43:29.464Z,99.99
2019-03-10T06:44:29.417Z,99.99
2019-03-10T06:45:29.367Z,99.99
2019-03-10T06:46:29.326Z,99.99
2019-03-10T06:47:29.268Z,99.99
2019-03-10T06:48:29.220Z,99.99
2019-03-10T06:49:29.172Z,99.99
2019-03-10T06:50:29.125Z,99.99
2019-03-10T06:51:29.077Z,99.99
2019-03-10T06:52:29.031Z,99.99
2019-03-10T06:53:28.987Z,99.99
2019-03-10T06:54:28.932Z,99.99
2019-03-10T06:55:28.885Z,99.99
2019-03-10T06:56:28.833Z,99.99
2019-03-10T06:57:32.388Z,99.99
2019-03-10T06:58:28.738Z,99.99
2019-03-10T06:59:28.693Z,99.99
2019-03-10T07:00:28.641Z,99.99
2019-03-10T07:01:28.592Z,99.99
2019-03-10T07:02:28.544Z,99.99
2019-03-10T07:03:28.500Z,99.99
2019-03-10T07:04:28.446Z,99.99
2019-03-10T07:05:28.402Z,99.99
2019-03-10T07:06:28.350Z,99.99
2019-03-10T07:07:28.303Z,99.99
2019-03-10T07:08:28.253Z,99.99
2019-03-10T07:09:28.211Z,99.99
2019-03-10T07:10:28.162Z,99.99
2019-03-10T07:11:28.111Z,99.99
2019-03-10T07:12:28.062Z,99.99
2019-03-10T07:13:28.011Z,99.99
2019-03-10T07:14:27.969Z,99.99
2019-03-10T07:15:27.913Z,99.99
2019-03-10T07:16:27.867Z,99.99
2019-03-10T07:17:27.817Z,99.99
2019-03-10T07:18:27.773Z,99.99
2019-03-10T07:19:27.721Z,99.99
2019-03-10T07:20:27.673Z,99.99
2019-03-10T07:21:27.626Z,99.99
2019-03-10T07:22:27.578Z,99.99
2019-03-10T07:23:27.526Z,99.99
2019-03-10T07:24:27.477Z,99.99
2019-03-10T07:25:27.428Z,99.99
2019-03-10T07:26:27.383Z,99.99
2019-03-10T07:27:27.333Z,99.99
2019-03-10T07:28:27.286Z,99.99
2019-03-10T07:29:27.251Z,99.99
2019-03-10T07:30:27.191Z,99.99
2019-03-10T07:31:27.139Z,99.99
2019-03-10T07:32:27.101Z,99.99
2019-03-10T07:33:27.046Z,99.99
2019-03-10T07:34:26.997Z,99.99
2019-03-10T07:35:26.951Z,99.99
2019-03-10T07:36:26.901Z,99.99
2019-03-10T07:37:26.870Z,99.99
2019-03-10T07:38:26.800Z,99.99
2019-03-10T07:39:26.753Z,99.99
2019-03-10T07:40:26.707Z,99.99
2019-03-10T07:41:26.660Z,99.99
2019-03-10T07:42:26.612Z,99.99
2019-03-10T07:43:26.560Z,99.99
2019-03-10T07:44:26.520Z,99.99
2019-03-10T07:45:26.465Z,99.99
2019-03-10T07:46:26.416Z,99.99
2019-03-10T07:47:26.367Z,99.99
2019-03-10T07:48:26.325Z,99.99
2019-03-10T07:49:26.272Z,99.99
2019-03-10T07:50:26.223Z,99.99
2019-03-10T07:51:26.218Z,99.99
2019-03-10T07:52:26.125Z,99.99
2019-03-10T07:53:26.083Z,99.99
2019-03-10T07:54:26.031Z,99.99
2019-03-10T07:55:25.985Z,99.99
2019-03-10T07:56:25.935Z,99.99
2019-03-10T07:57:25.883Z,99.99
2019-03-10T07:58:25.834Z,99.99
2019-03-10T07:59:25.786Z,99.99
2019-03-10T08:00:25.745Z,99.99
2019-03-10T08:01:25.691Z,99.99
2019-03-10T08:02:25.642Z,99.99
2019-03-10T08:03:26.916Z,99.99
2019-03-10T08:04:25.544Z,99.99
2019-03-10T08:05:25.499Z,99.99
2019-03-10T08:06:25.454Z,99.99
2019-03-10T08:07:25.399Z,99.99
2019-03-10T08:08:25.362Z,99.99
2019-03-10T08:09:25.304Z,99.99
2019-03-10T08:10:25.256Z,99.99
2019-03-10T08:11:25.206Z,99.99
2019-03-10T08:12:25.158Z,99.99
2019-03-10T08:13:25.111Z,99.99
2019-03-10T08:14:25.062Z,99.99
2019-03-10T08:15:25.019Z,99.99
2019-03-10T08:16:24.967Z,99.99
2019-03-10T08:17:24.917Z,99.99
2019-03-10T08:18:24.870Z,99.99
2019-03-10T08:19:24.824Z,99.99
2019-03-10T08:20:24.777Z,99.99
2019-03-10T08:21:24.726Z,99.99
2019-03-10T08:22:24.684Z,99.99
2019-03-10T08:23:24.628Z,99.99
2019-03-10T08:24:24.581Z,99.99
2019-03-10T08:25:24.532Z,99.99
2019-03-10T08:26:24.487Z,99.99
2019-03-10T08:27:24.437Z,99.99
2019-03-10T08:28:24.396Z,99.99
2019-03-10T08:29:24.345Z,99.99
2019-03-10T08:30:24.293Z,99.99
2019-03-10T08:31:24.249Z,99.99
2019-03-10T08:32:24.196Z,99.99
2019-03-10T08:33:24.151Z,99.99
2019-03-10T08:34:24.104Z,99.99
2019-03-10T08:35:24.060Z,99.99
2019-03-10T08:36:24.005Z,99.99
2019-03-10T08:37:23.959Z,99.99
2019-03-10T08:38:23.916Z,99.99
2019-03-10T08:39:23.859Z,99.99
2019-03-10T08:40:23.812Z,99.99
2019-03-10T08:41:23.768Z,99.99
2019-03-10T08:42:23.716Z,99.99
2019-03-10T08:43:23.668Z,99.99
2019-03-10T08:44:23.620Z,99.99
2019-03-10T08:45:23.580Z,99.99
2019-03-10T08:46:23.526Z,99.99
2019-03-10T08:47:23.481Z,99.99
2019-03-10T08:48:23.443Z,99.99
2019-03-10T08:49:23.379Z,99.99
2019-03-10T08:50:23.332Z,99.99
2019-03-10T08:51:23.290Z,99.99
2019-03-10T08:52:23.239Z,99.99
2019-03-10T08:53:23.192Z,99.99
2019-03-10T08:54:23.145Z,99.99
2019-03-10T08:55:23.094Z,99.99
2019-03-10T08:56:23.047Z,99.99
2019-03-10T08:57:23.002Z,99.99
2019-03-10T08:58:22.950Z,99.99
2019-03-10T08:59:22.902Z,99.99
2019-03-10T09:00:22.855Z,99.99
2019-03-10T09:01:22.809Z,99.99
2019-03-10T09:02:22.759Z,99.99
2019-03-10T09:03:22.710Z,99.99
2019-03-10T09:05:22.617Z,99.99
2019-03-10T09:06:22.573Z,99.99
2019-03-10T09:07:22.523Z,99.99
2019-03-10T09:08:22.480Z,99.99
2019-03-10T09:09:22.425Z,99.99
2019-03-10T09:10:22.377Z,99.99
2019-03-10T09:11:22.414Z,99.99
2019-03-10T09:12:22.292Z,99.99
2019-03-10T09:13:22.235Z,99.99
2019-03-10T09:14:22.188Z,99.99
2019-03-10T09:15:22.138Z,99.99
2019-03-10T09:16:22.090Z,99.99
2019-03-10T09:17:22.053Z,99.99
2019-03-10T09:18:22.000Z,99.99
2019-03-10T09:19:21.952Z,99.99
2019-03-10T09:20:21.905Z,99.99
2019-03-10T09:21:21.854Z,99.99
2019-03-10T09:22:21.831Z,99.99
2019-03-10T09:23:21.762Z,99.99
2019-03-10T09:24:21.709Z,99.99
2019-03-10T09:25:21.660Z,99.99
2019-03-10T09:26:21.613Z,99.99
2019-03-10T09:27:21.572Z,99.99
2019-03-10T09:28:21.522Z,99.99
2019-03-10T09:29:21.488Z,99.99
2019-03-10T09:30:21.422Z,99.99
2019-03-10T09:31:21.374Z,99.99
2019-03-10T09:32:21.330Z,99.99
2019-03-10T09:33:21.314Z,99.99
2019-03-10T09:34:21.233Z,99.99
2019-03-10T09:35:21.184Z,99.99
2019-03-10T09:36:21.141Z,99.99
2019-03-10T09:37:21.139Z,99.99
2019-03-10T09:38:21.044Z,99.99
2019-03-10T09:39:20.999Z,99.99
2019-03-10T09:40:20.947Z,99.99
2019-03-10T09:41:20.899Z,99.99
2019-03-10T09:42:20.855Z,99.99
2019-03-10T09:43:20.804Z,99.99
2019-03-10T09:44:20.762Z,99.99
2019-03-10T09:45:20.714Z,99.99
2019-03-10T09:46:20.665Z,99.99
2019-03-10T09:47:20.617Z,99.99
2019-03-10T09:48:20.568Z,99.99
2019-03-10T09:49:20.523Z,99.99
2019-03-10T09:50:20.586Z,99.99
2019-03-10T09:51:20.428Z,99.99
2019-03-10T09:52:20.378Z,99.99
2019-03-10T09:53:20.338Z,99.99
2019-03-10T09:54:20.305Z,99.99
2019-03-10T09:55:20.241Z,99.99
2019-03-10T09:56:20.192Z,99.99
2019-03-10T09:57:20.151Z,99.99
2019-03-10T09:58:20.092Z,99.99
2019-03-10T09:59:20.044Z,99.99
2019-03-10T10:00:20.001Z,99.99
2019-03-10T10:01:19.952Z,99.99
2019-03-10T10:02:19.906Z,99.99
2019-03-10T10:03:19.857Z,99.99
2019-03-10T10:04:19.808Z,99.99
2019-03-10T10:05:19.763Z,99.99
2019-03-10T10:06:19.721Z,99.99
2019-03-10T10:07:19.669Z,99.99
2019-03-10T10:08:19.624Z,99.99
2019-03-10T10:09:19.571Z,99.99
2019-03-10T10:10:19.529Z,99.99
2019-03-10T10:11:19.480Z,99.99
2019-03-10T10:12:19.431Z,99.99
2019-03-10T10:13:19.384Z,99.99
2019-03-10T10:14:19.338Z,99.99
2019-03-10T10:15:19.291Z,99.99
2019-03-10T10:16:19.244Z,99.99
2019-03-10T10:17:19.197Z,99.99
2019-03-10T10:18:19.148Z,99.99
2019-03-10T10:19:19.106Z,99.99
2019-03-10T10:20:19.058Z,99.99
2019-03-10T10:21:19.008Z,99.99
2019-03-10T10:22:18.964Z,99.99
2019-03-10T10:23:18.916Z,99.99
2019-03-10T10:24:18.870Z,99.99
2019-03-10T10:25:18.822Z,99.99
2019-03-10T10:26:18.778Z,99.99
2019-03-10T10:27:20.198Z,99.99
2019-03-10T10:28:18.680Z,99.99
2019-03-10T10:29:18.638Z,99.99
2019-03-10T10:30:18.658Z,99.99
2019-03-10T10:31:18.540Z,99.99
2019-03-10T10:32:18.495Z,99.99
2019-03-10T10:33:18.444Z,99.99
2019-03-10T10:34:18.403Z,99.99
2019-03-10T10:35:18.402Z,99.99
2019-03-10T10:36:18.311Z,99.99
2019-03-10T10:37:18.259Z,99.99
2019-03-10T10:38:19.214Z,99.99
2019-03-10T10:39:18.168Z,99.99
2019-03-10T10:40:18.118Z,99.99
2019-03-10T10:41:18.073Z,99.99
2019-03-10T10:42:18.035Z,99.99
2019-03-10T10:43:17.977Z,99.99
2019-03-10T10:44:17.932Z,99.99
2019-03-10T10:45:17.956Z,99.99
2019-03-10T10:46:17.843Z,99.99
2019-03-10T10:47:17.791Z,99.99
2019-03-10T10:48:17.754Z,99.99
2019-03-10T10:49:17.698Z,99.99
2019-03-10T10:50:17.680Z,99.99
2019-03-10T10:51:17.622Z,99.99
2019-03-10T10:52:17.614Z,99.99
2019-03-10T10:53:17.530Z,99.99
2019-03-10T10:54:17.466Z,99.99
2019-03-10T10:55:17.424Z,99.99
2019-03-10T10:56:17.376Z,99.99
2019-03-10T10:57:17.342Z,99.99
2019-03-10T10:58:17.281Z,99.99
2019-03-10T10:59:17.234Z,99.99
2019-03-10T11:00:17.197Z,99.99
2019-03-10T11:01:17.145Z,99.99
2019-03-10T11:02:17.099Z,99.99
2019-03-10T11:03:17.052Z,99.99
2019-03-10T11:04:17.011Z,99.99
2019-03-10T11:05:16.961Z,99.99
2019-03-10T11:06:16.916Z,99.99
2019-03-10T11:07:16.872Z,99.99
2019-03-10T11:08:16.825Z,99.99
2019-03-10T11:09:16.779Z,99.99
2019-03-10T11:10:16.777Z,99.99
2019-03-10T11:11:16.791Z,99.99
2019-03-10T11:12:16.639Z,99.99
2019-03-10T11:13:16.608Z,99.99
2019-03-10T11:14:16.592Z,99.99
2019-03-10T11:15:16.500Z,99.99
2019-03-10T11:16:16.455Z,99.99
2019-03-10T11:17:16.413Z,99.99
2019-03-10T11:18:16.365Z,99.99
2019-03-10T11:19:16.322Z,99.99
2019-03-10T11:20:16.336Z,99.99
2019-03-10T11:21:16.229Z,99.99
2019-03-10T11:22:16.188Z,99.99
2019-03-10T11:23:16.137Z,99.99
2019-03-10T11:24:16.095Z,99.99
2019-03-10T11:25:16.045Z,99.99
2019-03-10T11:26:16.000Z,99.99
2019-03-10T11:27:15.957Z,99.99
2019-03-10T11:28:15.920Z,99.99
2019-03-10T11:29:15.869Z,99.99
2019-03-10T11:30:15.829Z,99.99
2019-03-10T11:31:15.776Z,99.99
2019-03-10T11:32:15.729Z,99.99
2019-03-10T11:33:15.680Z,99.99
2019-03-10T11:34:15.641Z,99.99
2019-03-10T11:35:15.591Z,99.99
2019-03-10T11:36:15.546Z,99.99
2019-03-10T11:37:15.501Z,99.99
2019-03-10T11:38:15.459Z,99.99
2019-03-10T11:39:15.416Z,99.99
2019-03-10T11:40:15.362Z,99.99
2019-03-10T11:41:15.316Z,99.99
2019-03-10T11:42:15.271Z,99.99
2019-03-10T11:43:15.233Z,99.99
2019-03-10T11:44:15.181Z,99.99
2019-03-10T11:45:15.136Z,99.99
2019-03-10T11:46:15.100Z,99.99
2019-03-10T11:47:15.052Z,99.99
2019-03-10T11:48:15.003Z,99.99
2019-03-10T11:49:14.952Z,99.99
2019-03-10T11:50:15.296Z,99.99
2019-03-10T11:51:14.853Z,99.99
2019-03-10T11:52:14.808Z,99.99
2019-03-10T11:53:19.275Z,99.99
2019-03-10T11:54:14.739Z,99.99
2019-03-10T11:55:14.804Z,99.99
2019-03-10T11:56:14.636Z,99.99
2019-03-10T11:57:14.575Z,99.99
2019-03-10T11:58:14.528Z,99.99
2019-03-10T11:59:14.493Z,99.99
2019-03-10T12:00:14.437Z,99.99
2019-03-10T12:01:14.394Z,99.99
2019-03-10T12:02:16.340Z,99.99
2019-03-10T12:03:14.311Z,99.99
2019-03-10T12:04:14.250Z,99.99
2019-03-10T12:05:14.202Z,99.99
2019-03-10T12:06:14.155Z,99.99
2019-03-10T12:07:14.113Z,99.99
2019-03-10T12:08:14.067Z,99.99
2019-03-10T12:09:14.022Z,99.99
2019-03-10T12:10:13.980Z,99.99
2019-03-10T12:11:13.922Z,99.99
2019-03-10T12:12:13.878Z,99.99
2019-03-10T12:13:13.841Z,99.99
2019-03-10T12:14:13.807Z,99.99
2019-03-10T12:15:13.740Z,99.99
2019-03-10T12:16:13.697Z,99.99
2019-03-10T12:17:13.642Z,99.99
2019-03-10T12:18:13.598Z,99.99
2019-03-10T12:19:13.551Z,99.99
2019-03-10T12:20:13.504Z,99.99
2019-03-10T12:21:13.458Z,99.99
2019-03-10T12:22:13.416Z,99.99
2019-03-10T12:23:13.366Z,99.99
2019-03-10T12:24:13.318Z,99.99
2019-03-10T12:25:13.275Z,99.99
2019-03-10T12:26:13.219Z,99.99
2019-03-10T12:27:13.176Z,99.99
2019-03-10T12:28:13.128Z,99.99
2019-03-10T12:29:13.081Z,99.99
2019-03-10T12:30:13.034Z,99.99
2019-03-10T12:31:12.988Z,99.99
2019-03-10T12:32:12.946Z,99.99
2019-03-10T12:33:12.891Z,99.99
2019-03-10T12:34:12.845Z,99.99
2019-03-10T12:35:12.803Z,99.99
2019-03-10T12:36:12.752Z,99.99
2019-03-10T12:37:12.707Z,99.99
2019-03-10T12:38:12.660Z,99.99
2019-03-10T12:39:12.613Z,99.99
2019-03-10T12:40:12.564Z,99.99
2019-03-10T12:41:12.516Z,99.99
2019-03-10T12:42:12.470Z,99.99
2019-03-10T12:43:12.425Z,99.99
2019-03-10T12:44:12.375Z,99.99
2019-03-10T12:45:12.333Z,99.99
2019-03-10T12:46:12.284Z,99.99
2019-03-10T12:47:12.234Z,99.99
2019-03-10T12:48:12.187Z,99.99
2019-03-10T12:49:12.139Z,99.99
2019-03-10T12:50:12.094Z,99.99
2019-03-10T12:51:12.046Z,99.99
2019-03-10T12:52:12.003Z,99.99
2019-03-10T12:53:11.953Z,99.99